sensor_id;sensor_type;location;lat;lon;timestamp;P1;durP1;ratioP1;P2;durP2;ratioP2
32894;SDS011;19251;49.484;8.260;2022-12-29T00:01:20;2.83;;;1.40;;
32894;SDS011;19251;49.484;8.260;2022-12-29T00:06:22;2.65;;;0.98;;
32894;SDS011;19251;49.484;8.260;2022-12-29T00:16:28;6.37;;;1.55;;
32894;SDS011;19251;49.484;8.260;2022-12-29T00:21:33;3.23;;;0.90;;
32894;SDS011;19251;49.484;8.260;2022-12-29T00:32:23;3.50;;;1.23;;
32894;SDS011;19251;49.484;8.260;2022-12-29T00:37:46;2.10;;;0.90;;
32894;SDS011;19251;49.484;8.260;2022-12-29T00:43:08;2.75;;;1.12;;
32894;SDS011;19251;49.484;8.260;2022-12-29T00:48:29;4.83;;;0.93;;
32894;SDS011;19251;49.484;8.260;2022-12-29T00:53:50;1.70;;;0.77;;
32894;SDS011;19251;49.484;8.260;2022-12-29T00:58:52;2.05;;;0.80;;
32894;SDS011;19251;49.484;8.260;2022-12-29T01:03:54;0.82;;;0.60;;
32894;SDS011;19251;49.484;8.260;2022-12-29T01:09:04;1.03;;;0.60;;
32894;SDS011;19251;49.484;8.260;2022-12-29T01:14:25;0.53;;;0.30;;
32894;SDS011;19251;49.484;8.260;2022-12-29T01:19:28;0.87;;;0.57;;
32894;SDS011;19251;49.484;8.260;2022-12-29T01:24:30;0.57;;;0.43;;
32894;SDS011;19251;49.484;8.260;2022-12-29T01:29:33;1.08;;;0.60;;
32894;SDS011;19251;49.484;8.260;2022-12-29T01:34:35;1.65;;;0.60;;
32894;SDS011;19251;49.484;8.260;2022-12-29T01:50:06;0.70;;;0.50;;
32894;SDS011;19251;49.484;8.260;2022-12-29T01:55:20;1.97;;;0.80;;
32894;SDS011;19251;49.484;8.260;2022-12-29T02:00:22;1.37;;;0.50;;
32894;SDS011;19251;49.484;8.260;2022-12-29T02:05:35;2.17;;;0.95;;
32894;SDS011;19251;49.484;8.260;2022-12-29T02:11:00;1.37;;;0.53;;
32894;SDS011;19251;49.484;8.260;2022-12-29T02:16:25;0.68;;;0.60;;
32894;SDS011;19251;49.484;8.260;2022-12-29T02:21:46;1.93;;;0.60;;
32894;SDS011;19251;49.484;8.260;2022-12-29T02:27:23;2.63;;;0.97;;
32894;SDS011;19251;49.484;8.260;2022-12-29T02:32:52;1.10;;;0.40;;
32894;SDS011;19251;49.484;8.260;2022-12-29T02:53:53;1.03;;;0.57;;
32894;SDS011;19251;49.484;8.260;2022-12-29T02:59:15;4.35;;;1.55;;
32894;SDS011;19251;49.484;8.260;2022-12-29T03:14:59;3.40;;;0.60;;
32894;SDS011;19251;49.484;8.260;2022-12-29T03:20:38;1.27;;;0.70;;
32894;SDS011;19251;49.484;8.260;2022-12-29T03:25:47;3.10;;;1.15;;
32894;SDS011;19251;49.484;8.260;2022-12-29T03:30:53;1.67;;;0.90;;
32894;SDS011;19251;49.484;8.260;2022-12-29T03:35:59;1.93;;;0.80;;
32894;SDS011;19251;49.484;8.260;2022-12-29T03:41:06;4.50;;;0.87;;
32894;SDS011;19251;49.484;8.260;2022-12-29T03:46:13;2.87;;;0.90;;
32894;SDS011;19251;49.484;8.260;2022-12-29T03:51:15;2.67;;;1.12;;
32894;SDS011;19251;49.484;8.260;2022-12-29T03:56:19;3.20;;;0.97;;
32894;SDS011;19251;49.484;8.260;2022-12-29T04:01:22;2.95;;;0.70;;
32894;SDS011;19251;49.484;8.260;2022-12-29T04:06:25;3.35;;;0.77;;
32894;SDS011;19251;49.484;8.260;2022-12-29T04:16:34;4.35;;;0.88;;
32894;SDS011;19251;49.484;8.260;2022-12-29T04:21:41;0.93;;;0.70;;
32894;SDS011;19251;49.484;8.260;2022-12-29T04:31:48;1.55;;;0.55;;
32894;SDS011;19251;49.484;8.260;2022-12-29T04:36:51;1.30;;;0.60;;
32894;SDS011;19251;49.484;8.260;2022-12-29T04:41:53;1.08;;;0.52;;
32894;SDS011;19251;49.484;8.260;2022-12-29T04:46:56;3.20;;;0.80;;
32894;SDS011;19251;49.484;8.260;2022-12-29T04:51:59;1.60;;;1.17;;
32894;SDS011;19251;49.484;8.260;2022-12-29T04:57:01;5.28;;;0.90;;
32894;SDS011;19251;49.484;8.260;2022-12-29T05:02:04;3.85;;;0.85;;
32894;SDS011;19251;49.484;8.260;2022-12-29T05:12:09;2.58;;;0.82;;
32894;SDS011;19251;49.484;8.260;2022-12-29T05:17:13;2.08;;;1.12;;
32894;SDS011;19251;49.484;8.260;2022-12-29T05:22:15;1.98;;;0.80;;
32894;SDS011;19251;49.484;8.260;2022-12-29T05:27:19;2.92;;;0.82;;
32894;SDS011;19251;49.484;8.260;2022-12-29T05:37:24;3.40;;;0.82;;
32894;SDS011;19251;49.484;8.260;2022-12-29T05:42:26;0.95;;;0.85;;
32894;SDS011;19251;49.484;8.260;2022-12-29T05:47:29;1.55;;;0.75;;
32894;SDS011;19251;49.484;8.260;2022-12-29T05:52:32;4.70;;;1.12;;
32894;SDS011;19251;49.484;8.260;2022-12-29T05:57:34;2.85;;;1.17;;
32894;SDS011;19251;49.484;8.260;2022-12-29T06:02:37;1.10;;;0.93;;
32894;SDS011;19251;49.484;8.260;2022-12-29T06:07:40;3.22;;;1.25;;
32894;SDS011;19251;49.484;8.260;2022-12-29T06:12:43;1.90;;;1.17;;
32894;SDS011;19251;49.484;8.260;2022-12-29T06:17:45;1.90;;;0.80;;
32894;SDS011;19251;49.484;8.260;2022-12-29T06:22:48;2.58;;;1.60;;
32894;SDS011;19251;49.484;8.260;2022-12-29T06:27:51;3.62;;;1.48;;
32894;SDS011;19251;49.484;8.260;2022-12-29T06:32:54;4.75;;;1.65;;
32894;SDS011;19251;49.484;8.260;2022-12-29T06:37:57;1.27;;;1.00;;
32894;SDS011;19251;49.484;8.260;2022-12-29T06:42:59;1.77;;;1.30;;
32894;SDS011;19251;49.484;8.260;2022-12-29T06:48:01;5.07;;;1.23;;
32894;SDS011;19251;49.484;8.260;2022-12-29T06:53:03;2.22;;;1.12;;
32894;SDS011;19251;49.484;8.260;2022-12-29T07:03:08;3.47;;;1.50;;
32894;SDS011;19251;49.484;8.260;2022-12-29T07:13:13;2.50;;;1.12;;
32894;SDS011;19251;49.484;8.260;2022-12-29T07:18:15;4.10;;;1.50;;
32894;SDS011;19251;49.484;8.260;2022-12-29T07:23:18;5.00;;;1.65;;
32894;SDS011;19251;49.484;8.260;2022-12-29T07:28:20;3.33;;;1.10;;
32894;SDS011;19251;49.484;8.260;2022-12-29T07:33:22;3.28;;;1.80;;
32894;SDS011;19251;49.484;8.260;2022-12-29T07:38:24;3.10;;;1.58;;
32894;SDS011;19251;49.484;8.260;2022-12-29T07:43:26;1.75;;;1.05;;
32894;SDS011;19251;49.484;8.260;2022-12-29T07:48:30;12.00;;;1.75;;
32894;SDS011;19251;49.484;8.260;2022-12-29T07:53:32;7.95;;;1.45;;
32894;SDS011;19251;49.484;8.260;2022-12-29T07:58:34;7.43;;;1.80;;
32894;SDS011;19251;49.484;8.260;2022-12-29T08:03:36;1.30;;;1.15;;
32894;SDS011;19251;49.484;8.260;2022-12-29T08:08:39;5.65;;;1.70;;
32894;SDS011;19251;49.484;8.260;2022-12-29T08:13:41;2.08;;;1.08;;
32894;SDS011;19251;49.484;8.260;2022-12-29T08:18:43;3.80;;;1.62;;
32894;SDS011;19251;49.484;8.260;2022-12-29T08:23:46;5.87;;;2.22;;
32894;SDS011;19251;49.484;8.260;2022-12-29T08:28:49;2.67;;;1.35;;
32894;SDS011;19251;49.484;8.260;2022-12-29T08:33:53;4.03;;;1.50;;
32894;SDS011;19251;49.484;8.260;2022-12-29T08:38:56;3.90;;;1.80;;
32894;SDS011;19251;49.484;8.260;2022-12-29T08:43:58;5.87;;;1.73;;
32894;SDS011;19251;49.484;8.260;2022-12-29T08:49:00;3.67;;;1.73;;
32894;SDS011;19251;49.484;8.260;2022-12-29T08:54:03;2.53;;;1.98;;
32894;SDS011;19251;49.484;8.260;2022-12-29T08:59:05;3.12;;;1.40;;
32894;SDS011;19251;49.484;8.260;2022-12-29T09:04:08;5.43;;;1.55;;
32894;SDS011;19251;49.484;8.260;2022-12-29T09:09:17;2.87;;;1.60;;
32894;SDS011;19251;49.484;8.260;2022-12-29T09:19:23;3.35;;;1.20;;
32894;SDS011;19251;49.484;8.260;2022-12-29T09:24:25;3.62;;;1.12;;
32894;SDS011;19251;49.484;8.260;2022-12-29T09:29:27;4.15;;;1.30;;
32894;SDS011;19251;49.484;8.260;2022-12-29T09:34:29;4.05;;;2.08;;
32894;SDS011;19251;49.484;8.260;2022-12-29T09:39:31;7.15;;;1.25;;
32894;SDS011;19251;49.484;8.260;2022-12-29T09:49:56;2.72;;;1.10;;
32894;SDS011;19251;49.484;8.260;2022-12-29T09:55:10;1.62;;;1.02;;
32894;SDS011;19251;49.484;8.260;2022-12-29T10:00:18;4.55;;;1.77;;
32894;SDS011;19251;49.484;8.260;2022-12-29T10:10:40;3.35;;;1.55;;
32894;SDS011;19251;49.484;8.260;2022-12-29T10:26:42;1.52;;;1.10;;
32894;SDS011;19251;49.484;8.260;2022-12-29T10:31:48;2.30;;;1.40;;
32894;SDS011;19251;49.484;8.260;2022-12-29T10:37:11;6.43;;;1.80;;
32894;SDS011;19251;49.484;8.260;2022-12-29T10:42:34;9.75;;;1.80;;
32894;SDS011;19251;49.484;8.260;2022-12-29T10:47:48;6.68;;;2.15;;
32894;SDS011;19251;49.484;8.260;2022-12-29T10:52:58;2.22;;;1.33;;
32894;SDS011;19251;49.484;8.260;2022-12-29T10:58:04;3.35;;;1.37;;
32894;SDS011;19251;49.484;8.260;2022-12-29T11:08:12;5.25;;;1.20;;
32894;SDS011;19251;49.484;8.260;2022-12-29T11:13:20;6.12;;;1.55;;
32894;SDS011;19251;49.484;8.260;2022-12-29T11:18:35;4.53;;;1.33;;
32894;SDS011;19251;49.484;8.260;2022-12-29T11:23:40;2.00;;;1.02;;
32894;SDS011;19251;49.484;8.260;2022-12-29T11:28:44;1.25;;;0.70;;
32894;SDS011;19251;49.484;8.260;2022-12-29T11:34:06;2.00;;;1.15;;
32894;SDS011;19251;49.484;8.260;2022-12-29T11:39:18;2.70;;;1.05;;
32894;SDS011;19251;49.484;8.260;2022-12-29T11:44:35;1.60;;;0.93;;
32894;SDS011;19251;49.484;8.260;2022-12-29T11:49:43;4.00;;;1.23;;
32894;SDS011;19251;49.484;8.260;2022-12-29T11:54:53;3.72;;;1.20;;
32894;SDS011;19251;49.484;8.260;2022-12-29T11:59:56;2.00;;;1.10;;
32894;SDS011;19251;49.484;8.260;2022-12-29T12:15:39;2.50;;;0.70;;
32894;SDS011;19251;49.484;8.260;2022-12-29T12:20:52;2.83;;;0.85;;
32894;SDS011;19251;49.484;8.260;2022-12-29T12:26:16;1.75;;;0.70;;
32894;SDS011;19251;49.484;8.260;2022-12-29T12:31:44;1.23;;;0.75;;
32894;SDS011;19251;49.484;8.260;2022-12-29T12:36:52;3.33;;;0.98;;
32894;SDS011;19251;49.484;8.260;2022-12-29T12:47:41;4.70;;;2.08;;
32894;SDS011;19251;49.484;8.260;2022-12-29T12:53:13;3.42;;;1.95;;
32894;SDS011;19251;49.484;8.260;2022-12-29T13:03:46;1.48;;;0.62;;
32894;SDS011;19251;49.484;8.260;2022-12-29T13:09:09;1.27;;;0.60;;
32894;SDS011;19251;49.484;8.260;2022-12-29T13:25:18;1.33;;;0.50;;
32894;SDS011;19251;49.484;8.260;2022-12-29T13:35:53;1.80;;;1.10;;
32894;SDS011;19251;49.484;8.260;2022-12-29T13:41:16;2.50;;;0.55;;
32894;SDS011;19251;49.484;8.260;2022-12-29T13:46:28;0.95;;;0.40;;
32894;SDS011;19251;49.484;8.260;2022-12-29T13:51:35;2.42;;;0.32;;
32894;SDS011;19251;49.484;8.260;2022-12-29T13:56:51;1.75;;;0.50;;
32894;SDS011;19251;49.484;8.260;2022-12-29T14:02:03;1.33;;;0.57;;
32894;SDS011;19251;49.484;8.260;2022-12-29T14:07:13;5.78;;;1.02;;
32894;SDS011;19251;49.484;8.260;2022-12-29T14:12:28;3.10;;;0.93;;
32894;SDS011;19251;49.484;8.260;2022-12-29T14:17:34;1.40;;;0.70;;
32894;SDS011;19251;49.484;8.260;2022-12-29T14:22:38;1.50;;;0.62;;
32894;SDS011;19251;49.484;8.260;2022-12-29T14:28:22;1.90;;;0.43;;
32894;SDS011;19251;49.484;8.260;2022-12-29T14:33:28;2.87;;;0.60;;
32894;SDS011;19251;49.484;8.260;2022-12-29T14:38:32;1.87;;;0.45;;
32894;SDS011;19251;49.484;8.260;2022-12-29T14:43:34;2.78;;;0.77;;
32894;SDS011;19251;49.484;8.260;2022-12-29T14:48:38;3.53;;;0.85;;
32894;SDS011;19251;49.484;8.260;2022-12-29T14:53:47;3.75;;;0.90;;
32894;SDS011;19251;49.484;8.260;2022-12-29T14:58:56;4.47;;;0.97;;
32894;SDS011;19251;49.484;8.260;2022-12-29T15:04:13;2.40;;;0.90;;
32894;SDS011;19251;49.484;8.260;2022-12-29T15:14:54;3.90;;;0.80;;
32894;SDS011;19251;49.484;8.260;2022-12-29T15:19:59;3.40;;;1.03;;
32894;SDS011;19251;49.484;8.260;2022-12-29T15:25:15;2.63;;;0.70;;
32894;SDS011;19251;49.484;8.260;2022-12-29T15:30:19;3.63;;;1.10;;
32894;SDS011;19251;49.484;8.260;2022-12-29T15:40:34;3.00;;;1.12;;
32894;SDS011;19251;49.484;8.260;2022-12-29T15:45:36;2.25;;;1.08;;
32894;SDS011;19251;49.484;8.260;2022-12-29T15:50:39;5.30;;;1.25;;
32894;SDS011;19251;49.484;8.260;2022-12-29T15:55:44;5.20;;;1.30;;
32894;SDS011;19251;49.484;8.260;2022-12-29T16:00:50;4.77;;;1.40;;
32894;SDS011;19251;49.484;8.260;2022-12-29T16:05:56;4.45;;;1.00;;
32894;SDS011;19251;49.484;8.260;2022-12-29T16:11:22;3.25;;;1.10;;
32894;SDS011;19251;49.484;8.260;2022-12-29T16:16:32;2.60;;;0.83;;
32894;SDS011;19251;49.484;8.260;2022-12-29T16:21:39;4.45;;;0.90;;
32894;SDS011;19251;49.484;8.260;2022-12-29T16:26:55;7.10;;;1.70;;
32894;SDS011;19251;49.484;8.260;2022-12-29T16:32:18;4.80;;;1.20;;
32894;SDS011;19251;49.484;8.260;2022-12-29T16:37:30;7.10;;;1.50;;
32894;SDS011;19251;49.484;8.260;2022-12-29T16:58:28;1.80;;;0.50;;
32894;SDS011;19251;49.484;8.260;2022-12-29T17:03:35;3.55;;;0.90;;
32894;SDS011;19251;49.484;8.260;2022-12-29T17:08:42;6.80;;;1.20;;
32894;SDS011;19251;49.484;8.260;2022-12-29T17:13:45;4.45;;;1.05;;
32894;SDS011;19251;49.484;8.260;2022-12-29T17:18:47;2.30;;;0.82;;
32894;SDS011;19251;49.484;8.260;2022-12-29T17:23:49;9.32;;;1.50;;
32894;SDS011;19251;49.484;8.260;2022-12-29T17:28:52;5.03;;;1.48;;
32894;SDS011;19251;49.484;8.260;2022-12-29T17:33:54;5.28;;;1.65;;
32894;SDS011;19251;49.484;8.260;2022-12-29T17:38:57;4.60;;;1.55;;
32894;SDS011;19251;49.484;8.260;2022-12-29T17:43:59;7.57;;;1.50;;
32894;SDS011;19251;49.484;8.260;2022-12-29T17:49:04;7.07;;;1.50;;
32894;SDS011;19251;49.484;8.260;2022-12-29T17:54:20;8.47;;;1.63;;
32894;SDS011;19251;49.484;8.260;2022-12-29T17:59:24;5.80;;;1.27;;
32894;SDS011;19251;49.484;8.260;2022-12-29T18:04:27;6.90;;;1.17;;
32894;SDS011;19251;49.484;8.260;2022-12-29T18:09:29;8.70;;;2.35;;
32894;SDS011;19251;49.484;8.260;2022-12-29T18:14:32;4.47;;;2.05;;
32894;SDS011;19251;49.484;8.260;2022-12-29T18:19:34;4.07;;;1.90;;
32894;SDS011;19251;49.484;8.260;2022-12-29T18:29:39;12.05;;;2.80;;
32894;SDS011;19251;49.484;8.260;2022-12-29T18:34:41;3.10;;;1.50;;
32894;SDS011;19251;49.484;8.260;2022-12-29T18:39:43;7.75;;;2.83;;
32894;SDS011;19251;49.484;8.260;2022-12-29T18:44:45;8.85;;;2.80;;
32894;SDS011;19251;49.484;8.260;2022-12-29T18:49:48;10.20;;;1.75;;
32894;SDS011;19251;49.484;8.260;2022-12-29T18:54:50;7.50;;;2.17;;
32894;SDS011;19251;49.484;8.260;2022-12-29T18:59:52;6.75;;;1.73;;
32894;SDS011;19251;49.484;8.260;2022-12-29T19:04:54;5.32;;;2.35;;
32894;SDS011;19251;49.484;8.260;2022-12-29T19:10:07;3.95;;;1.67;;
32894;SDS011;19251;49.484;8.260;2022-12-29T19:15:16;5.90;;;1.87;;
32894;SDS011;19251;49.484;8.260;2022-12-29T19:25:28;5.93;;;1.92;;
32894;SDS011;19251;49.484;8.260;2022-12-29T19:30:31;15.60;;;5.30;;
32894;SDS011;19251;49.484;8.260;2022-12-29T19:35:33;15.35;;;6.45;;
32894;SDS011;19251;49.484;8.260;2022-12-29T19:40:36;10.35;;;4.50;;
32894;SDS011;19251;49.484;8.260;2022-12-29T19:45:42;8.85;;;3.55;;
32894;SDS011;19251;49.484;8.260;2022-12-29T19:50:45;6.45;;;2.25;;
32894;SDS011;19251;49.484;8.260;2022-12-29T19:55:48;9.90;;;4.60;;
32894;SDS011;19251;49.484;8.260;2022-12-29T20:00:50;7.20;;;2.78;;
32894;SDS011;19251;49.484;8.260;2022-12-29T20:05:52;7.35;;;2.62;;
32894;SDS011;19251;49.484;8.260;2022-12-29T20:10:55;7.40;;;2.33;;
32894;SDS011;19251;49.484;8.260;2022-12-29T20:16:04;11.20;;;3.60;;
32894;SDS011;19251;49.484;8.260;2022-12-29T20:21:12;9.03;;;4.80;;
32894;SDS011;19251;49.484;8.260;2022-12-29T20:26:24;9.07;;;4.33;;
32894;SDS011;19251;49.484;8.260;2022-12-29T20:31:35;15.70;;;5.20;;
32894;SDS011;19251;49.484;8.260;2022-12-29T20:36:39;10.45;;;5.15;;
32894;SDS011;19251;49.484;8.260;2022-12-29T20:41:43;13.10;;;5.25;;
32894;SDS011;19251;49.484;8.260;2022-12-29T20:46:46;11.10;;;3.53;;
32894;SDS011;19251;49.484;8.260;2022-12-29T20:57:07;9.60;;;3.00;;
32894;SDS011;19251;49.484;8.260;2022-12-29T21:02:18;7.70;;;2.65;;
32894;SDS011;19251;49.484;8.260;2022-12-29T21:07:23;10.45;;;4.40;;
32894;SDS011;19251;49.484;8.260;2022-12-29T21:12:25;14.77;;;2.75;;
32894;SDS011;19251;49.484;8.260;2022-12-29T21:17:27;10.45;;;4.18;;
32894;SDS011;19251;49.484;8.260;2022-12-29T21:22:29;11.38;;;2.42;;
32894;SDS011;19251;49.484;8.260;2022-12-29T21:27:31;7.70;;;2.40;;
32894;SDS011;19251;49.484;8.260;2022-12-29T21:32:33;4.53;;;1.95;;
32894;SDS011;19251;49.484;8.260;2022-12-29T21:37:36;4.62;;;2.05;;
32894;SDS011;19251;49.484;8.260;2022-12-29T21:42:38;5.25;;;1.90;;
32894;SDS011;19251;49.484;8.260;2022-12-29T21:47:40;5.90;;;1.83;;
32894;SDS011;19251;49.484;8.260;2022-12-29T21:53:01;7.97;;;2.13;;
32894;SDS011;19251;49.484;8.260;2022-12-29T21:58:03;9.02;;;2.60;;
32894;SDS011;19251;49.484;8.260;2022-12-29T22:03:44;3.53;;;1.10;;
32894;SDS011;19251;49.484;8.260;2022-12-29T22:09:04;9.80;;;2.53;;
32894;SDS011;19251;49.484;8.260;2022-12-29T22:14:25;13.27;;;2.43;;
32894;SDS011;19251;49.484;8.260;2022-12-29T22:19:27;7.95;;;2.28;;
32894;SDS011;19251;49.484;8.260;2022-12-29T22:24:30;18.37;;;2.87;;
32894;SDS011;19251;49.484;8.260;2022-12-29T22:29:32;7.27;;;3.00;;
32894;SDS011;19251;49.484;8.260;2022-12-29T22:34:34;13.05;;;2.90;;
32894;SDS011;19251;49.484;8.260;2022-12-29T22:39:36;7.68;;;1.98;;
32894;SDS011;19251;49.484;8.260;2022-12-29T22:44:39;10.82;;;2.47;;
32894;SDS011;19251;49.484;8.260;2022-12-29T22:49:41;8.20;;;2.53;;
32894;SDS011;19251;49.484;8.260;2022-12-29T22:54:44;8.00;;;2.08;;
32894;SDS011;19251;49.484;8.260;2022-12-29T22:59:46;10.20;;;2.40;;
32894;SDS011;19251;49.484;8.260;2022-12-29T23:04:48;11.57;;;1.80;;
32894;SDS011;19251;49.484;8.260;2022-12-29T23:10:06;13.10;;;2.40;;
32894;SDS011;19251;49.484;8.260;2022-12-29T23:15:09;11.35;;;2.25;;
32894;SDS011;19251;49.484;8.260;2022-12-29T23:20:11;13.95;;;4.43;;
32894;SDS011;19251;49.484;8.260;2022-12-29T23:25:14;11.18;;;3.12;;
32894;SDS011;19251;49.484;8.260;2022-12-29T23:30:16;4.75;;;2.33;;
32894;SDS011;19251;49.484;8.260;2022-12-29T23:35:18;7.18;;;1.08;;
32894;SDS011;19251;49.484;8.260;2022-12-29T23:40:20;7.57;;;2.12;;
32894;SDS011;19251;49.484;8.260;2022-12-29T23:45:23;5.90;;;1.90;;
32894;SDS011;19251;49.484;8.260;2022-12-29T23:50:25;11.95;;;2.22;;
32894;SDS011;19251;49.484;8.260;2022-12-29T23:55:27;12.73;;;2.08;;
